Thomson, Illinois
Current Conditions -  °F | °C
As of 8:55 AM on Thursday 30 Oct 2014 (Local Time) from KSFY Reporting Station
Broken Clouds Broken Clouds  
Wind Chill: 37°   Ceiling: 10000
Heat Index: 37°   Visibility: 10mi
Dew Point: 34°   Wind: 0mph
Humidity: 89%   Direction: NA
Pressure: 30.12"   Gusts: NA
Location:  41.96°N, 90.1°W
Report Text: KSFY 301355Z AUTO 00000KT 10SM BKN100 03/01 A3012 RMK AO2 T00280011
Loading
Personal Weather Stations






























Interactive Weather Map
Tropical Storm Tracking
New forecast layout! Learn more

10-Day Weather Forecast

Advertisements
Track Severe Weather on mobile